Aérodrome :
LOGIN :

S'inscrire | Disclaimer

   EN    FR    IT 

 










Légende :    VFR   VFR Marginal   IFR   IFR Intensif   IFR Très Intensif
Visi : 
Plafond : 
>= 8 km
>= 3000ft
5 à 8 km
1000 à 3000 ft
1500m à 5 km
500 à 1000 ft
800 à 1500m
200 à 500 ft
< 800m
< 200 ft
Symboles :   Orages  Brouillard  Fortes neiges  Fortes précipitations  Vent > 20 kt
SIGMETs :   Divers  Orages  Givrage  Turbulence  Onde Orograph.  Cendres Volcan.







- Altitude de l'aérodrome : 3 ft
- Code IATA : LWR


EHLW - Leuuwarden Air Base

DERNIER METAR :
  • 191125Z AUTO 18007KT 150V210 6000 -DZ FEW053 OVC070 02/01 Q1019 WHT

METARs EXPIRÉS :
  • 191055Z AUTO 18008KT 5000 -DZ SCT058 BKN070 02/01 Q1019 WHT
  • 191036Z AUTO 18008KT 140V200 5000 -DZ OVC069 02/00 Q1019 WHT
  • 191025Z AUTO 18007KT 150V210 5000 DZ SCT052 BKN059 OVC071 02/00 Q1019 WHT
  • 191017Z AUTO 17007KT 150V210 5000 DZ SCT051 OVC056 02/00 Q1019 WHT
  • 191011Z AUTO 17007KT 150V210 5000 DZ BKN032 OVC052 02/00 Q1019 WHT
  • 191003Z AUTO 17008KT 5000 DZ SCT028 OVC031 02/00 Q1019 WHT
  • 190955Z AUTO 17007KT 5000 DZ SCT026 OVC031 02/00 Q1019 WHT
  • 190943Z AUTO 17007KT 4400 DZRA FEW025 BKN029 OVC041 02/00 Q1019 GRN
  • 190925Z AUTO 18006KT 140V210 4400 -RA FEW024 OVC027 01/00 Q1019 RERA REDZ GRN
  • 190906Z AUTO 17006KT 150V220 4600 DZRA SCT032 BKN046 OVC051 01/M00 Q1019 GRN
  • 190855Z AUTO 18006KT 130V200 4800 -RADZ BKN025 OVC031 01/M00 Q1019 RERA REDZ GRN
  • 190825Z AUTO 18006KT 150V210 4800 -DZ FEW027 BKN047 OVC051 01/M00 Q1019 GRN

TAF TAF EHLW
Valide du 19 à 10h jusqu'au 19 à 22h UTC


190913Z 1910/1922 18007KT 4500 RADZ BR SCT025 BKN045
TEMPO 1910/1913 SCT018 BKN030
BECMG 1915/1918 13004KT 6000 NSW
Pas de NOTAMs connus pour ce terrain.
1 SIGMET publié pour la FIR Amsterdam (EHAA) :
 
Givrage fort
EHAA SIGMET 1 VALID 190838/191238 EHDB
EHAA AMSTERDAM FIR SEV ICE OBS AT 0830Z W OF LINE N5113 E00352 - N5500 E00500 FL150/200 STNR NC=



MET'MAP, la Météo Aéronautique d'un coup d'oeil ! - Copyright ORBIFLY Décembre 2007 - Disclaimer

ORBIFLY MET'MAP TEAM :

Programmation & Développement : Alexandra Zaïnal
Conception & Développement : Baudouin d'Aumeries
Co-Programmation & Développement : Marc-Olivier Méhu
Soutien technique & logistique : Manuel Goepfert

Contact : metmap@orbifly.com




SOURCES & CREDITS :

   NOAA